createdAt,value
2022-10-19T00:01:26.843Z,99947.19
2022-10-19T00:03:56.985Z,99940.25
2022-10-19T00:06:27.928Z,99949.91
2022-10-19T00:08:59.516Z,99944.69
2022-10-19T00:11:29.524Z,99943.75
2022-10-19T00:14:00.539Z,99942.00
2022-10-19T00:16:32.133Z,99948.13
2022-10-19T00:19:03.121Z,99940.25
2022-10-19T00:21:31.464Z,99938.56
2022-10-19T00:24:00.293Z,99947.69
2022-10-19T00:26:29.082Z,99945.13
2022-10-19T00:28:59.379Z,99947.34
2022-10-19T00:31:28.509Z,99943.78
2022-10-19T00:33:58.270Z,99936.34
2022-10-19T00:36:29.365Z,99941.63
2022-10-19T00:38:58.685Z,99937.47
2022-10-19T00:41:29.545Z,99937.56
2022-10-19T00:44:03.377Z,99934.66
2022-10-19T00:46:33.762Z,99941.34
2022-10-19T00:49:09.979Z,99939.84
2022-10-19T00:51:43.401Z,99935.03
2022-10-19T00:54:13.865Z,99930.38
2022-10-19T00:56:45.081Z,99927.56
2022-10-19T00:59:17.593Z,99920.63
2022-10-19T01:01:47.388Z,99930.72
2022-10-19T01:04:16.875Z,99942.06
2022-10-19T01:06:45.499Z,99934.00
2022-10-19T01:09:14.410Z,99934.75
2022-10-19T01:11:54.612Z,99936.59
2022-10-19T01:14:34.705Z,99932.22
2022-10-19T01:17:12.547Z,99929.47
2022-10-19T01:20:10.172Z,99926.59
2022-10-19T01:22:57.900Z,99922.16
2022-10-19T01:25:40.563Z,99919.47
2022-10-19T01:28:26.202Z,99917.72
2022-10-19T01:31:03.012Z,99919.63
2022-10-19T01:33:46.760Z,99916.91
2022-10-19T01:36:24.416Z,99914.34
2022-10-19T01:39:00.412Z,99917.88
2022-10-19T01:41:36.969Z,99914.28
2022-10-19T01:44:12.332Z,99910.81
2022-10-19T01:46:45.769Z,99912.56
2022-10-19T01:49:21.538Z,99906.47
2022-10-19T01:51:55.150Z,99914.41
2022-10-19T01:54:26.256Z,99911.84
2022-10-19T01:56:57.488Z,99910.97
2022-10-19T01:59:28.008Z,99911.88
2022-10-19T02:01:59.654Z,99910.13
2022-10-19T02:04:28.404Z,99910.22
2022-10-19T02:06:58.419Z,99906.78
2022-10-19T02:09:26.821Z,99906.88
2022-10-19T02:12:01.686Z,99907.81
2022-10-19T02:14:33.636Z,99907.91
2022-10-19T02:17:09.194Z,99910.47
2022-10-19T02:19:38.066Z,99908.88
2022-10-19T02:22:07.275Z,99908.06
2022-10-19T02:24:35.731Z,99913.38
2022-10-19T02:27:06.549Z,99920.44
2022-10-19T02:29:35.962Z,99921.31
2022-10-19T02:32:06.752Z,99914.34
2022-10-19T02:34:36.464Z,99909.22
2022-10-19T02:37:05.786Z,99905.75
2022-10-19T02:39:34.977Z,99905.75
2022-10-19T02:42:10.936Z,99914.53
2022-10-19T02:44:44.117Z,99911.94
2022-10-19T02:47:19.943Z,99907.53
2022-10-19T02:49:50.301Z,99907.59
2022-10-19T02:52:19.304Z,99902.47
2022-10-19T02:54:47.842Z,99899.84
2022-10-19T02:57:18.634Z,99902.56
2022-10-19T02:59:47.695Z,99897.41
2022-10-19T03:02:19.676Z,99905.31
2022-10-19T03:04:48.967Z,99905.34
2022-10-19T03:07:20.204Z,99902.91
2022-10-19T03:09:48.968Z,99910.88
2022-10-19T03:12:17.869Z,99911.75
2022-10-19T03:14:46.458Z,99916.94
2022-10-19T03:17:15.377Z,99922.25
2022-10-19T03:19:45.483Z,99932.75
2022-10-19T03:22:15.115Z,99935.28
2022-10-19T03:24:43.568Z,99929.13
2022-10-19T03:27:12.269Z,99937.00
2022-10-19T03:29:40.644Z,99937.00
2022-10-19T03:32:09.322Z,99942.22
2022-10-19T03:34:37.772Z,99943.06
2022-10-19T03:37:08.683Z,99930.00
2022-10-19T03:39:37.294Z,99934.38
2022-10-19T03:42:06.261Z,99930.03
2022-10-19T03:44:34.690Z,99930.88
2022-10-19T03:47:03.537Z,99916.00
2022-10-19T03:49:34.542Z,99923.00
2022-10-19T03:52:07.150Z,99929.13
2022-10-19T03:54:35.527Z,99926.50
2022-10-19T03:57:04.677Z,99925.66
2022-10-19T03:59:33.295Z,99923.97
2022-10-19T04:02:01.953Z,99923.09
2022-10-19T04:04:30.906Z,99924.00
2022-10-19T04:06:59.580Z,99921.41
2022-10-19T04:09:29.796Z,99917.84
2022-10-19T04:11:58.659Z,99918.91
2022-10-19T04:14:33.241Z,99916.28
2022-10-19T04:17:10.575Z,99915.47
2022-10-19T04:19:39.049Z,99915.44
2022-10-19T04:22:07.797Z,99913.69
2022-10-19T04:24:37.524Z,99917.16
2022-10-19T04:27:06.194Z,99917.09
2022-10-19T04:29:34.681Z,99912.69
2022-10-19T04:32:03.276Z,99921.41
2022-10-19T04:34:33.324Z,99921.38
2022-10-19T04:37:03.949Z,99923.09
2022-10-19T04:39:32.383Z,99918.69
2022-10-19T04:42:02.455Z,99916.91
2022-10-19T04:44:30.907Z,99904.66
2022-10-19T04:46:59.571Z,99922.09
2022-10-19T04:49:27.987Z,99914.25
2022-10-19T04:51:56.583Z,99923.03
2022-10-19T04:54:25.315Z,99928.25
2022-10-19T04:56:54.291Z,99923.03
2022-10-19T04:59:24.108Z,99926.63
2022-10-19T05:01:53.100Z,99924.81
2022-10-19T05:04:21.556Z,99922.19
2022-10-19T05:06:50.177Z,99919.53
2022-10-19T05:09:18.592Z,99911.63
2022-10-19T05:11:47.297Z,99911.75
2022-10-19T05:14:16.173Z,99917.88
2022-10-19T05:16:46.323Z,99918.72
2022-10-19T05:19:15.430Z,99920.41
2022-10-19T05:21:44.079Z,99919.47
2022-10-19T05:24:14.337Z,99908.97
2022-10-19T05:26:43.434Z,99914.22
2022-10-19T05:29:14.142Z,99907.13
2022-10-19T05:31:43.295Z,99895.84
2022-10-19T05:34:13.181Z,99897.66
2022-10-19T05:36:42.345Z,99901.97
2022-10-19T05:39:14.415Z,99903.72
2022-10-19T05:41:44.883Z,99903.66
2022-10-19T05:44:16.261Z,99909.91
2022-10-19T05:46:45.542Z,99914.16
2022-10-19T05:49:16.390Z,99924.56
2022-10-19T05:51:45.608Z,99921.03
2022-10-19T05:54:15.584Z,99922.78
2022-10-19T05:56:44.771Z,99923.56
2022-10-19T05:59:17.408Z,99922.59
2022-10-19T06:01:46.509Z,99934.66
2022-10-19T06:06:45.965Z,99944.38
2022-10-19T06:09:14.528Z,99942.53
2022-10-19T06:11:44.056Z,99943.28
2022-10-19T06:14:14.961Z,99950.25
2022-10-19T06:16:46.009Z,99948.31
2022-10-19T06:19:16.240Z,99953.41
2022-10-19T06:21:46.569Z,99947.94
2022-10-19T06:24:15.291Z,99943.31
2022-10-19T06:26:43.959Z,99945.13
2022-10-19T06:29:12.606Z,99945.78
2022-10-19T06:31:41.317Z,99952.00
2022-10-19T06:34:09.828Z,99957.16
2022-10-19T06:36:39.882Z,99967.81
2022-10-19T06:39:08.597Z,99963.13
2022-10-19T06:41:37.222Z,99960.19
2022-10-19T06:44:20.138Z,99949.63
2022-10-19T06:46:48.878Z,99961.34
2022-10-19T06:49:17.512Z,99954.84
2022-10-19T06:51:47.682Z,99957.47
2022-10-19T06:54:16.063Z,99953.59
2022-10-19T06:56:44.831Z,99949.81
2022-10-19T06:59:14.843Z,99949.53
2022-10-19T07:01:43.748Z,99943.50
2022-10-19T07:04:12.175Z,99955.59
2022-10-19T07:06:40.959Z,99953.81
2022-10-19T07:09:10.746Z,99961.47
2022-10-19T07:11:43.584Z,99962.88
2022-10-19T07:14:14.226Z,99970.13
2022-10-19T07:16:42.861Z,99968.63
2022-10-19T07:19:11.726Z,99979.63
2022-10-19T07:21:41.801Z,99966.19
2022-10-19T07:24:11.793Z,99964.69
2022-10-19T07:26:40.524Z,99971.09
2022-10-19T07:29:08.995Z,99966.59
2022-10-19T07:31:38.567Z,99967.13
2022-10-19T07:34:07.079Z,99971.66
2022-10-19T07:36:37.218Z,99964.50
2022-10-19T07:39:07.337Z,99957.75
2022-10-19T07:41:38.025Z,99952.63
2022-10-19T07:44:07.466Z,99940.34
2022-10-19T07:46:38.637Z,99952.59
2022-10-19T07:49:10.793Z,99953.28
2022-10-19T07:51:40.776Z,99940.31
2022-10-19T07:54:09.490Z,99934.31
2022-10-19T07:56:39.605Z,99935.47
2022-10-19T07:59:08.140Z,99926.84
2022-10-19T08:01:42.232Z,99930.88
2022-10-19T08:04:49.051Z,99929.72
2022-10-19T08:06:59.735Z,99920.84
2022-10-19T08:09:51.444Z,99931.00
2022-10-19T08:12:18.409Z,99921.97
2022-10-19T08:14:48.001Z,99926.28
2022-10-19T08:17:17.826Z,99921.44
2022-10-19T08:19:47.178Z,99917.47
2022-10-19T08:22:15.998Z,99922.22
2022-10-19T08:24:44.376Z,99921.97
2022-10-19T08:27:14.836Z,99928.88
2022-10-19T08:29:45.094Z,99933.94
2022-10-19T08:32:13.823Z,99929.06
2022-10-19T08:34:42.424Z,99929.69
2022-10-19T08:37:20.175Z,99927.72
2022-10-19T08:39:59.668Z,99918.94
2022-10-19T08:42:41.448Z,99924.25
2022-10-19T08:45:28.064Z,99921.44
2022-10-19T08:48:06.925Z,99918.88
2022-10-19T08:50:40.429Z,99920.88
2022-10-19T08:53:14.658Z,99927.88
2022-10-19T08:55:54.716Z,99929.31
2022-10-19T08:58:40.525Z,99939.47
2022-10-19T09:01:17.180Z,99931.25
2022-10-19T09:03:55.539Z,99927.28
2022-10-19T09:06:30.363Z,99928.72
2022-10-19T09:08:59.754Z,99919.69
2022-10-19T09:11:32.393Z,99916.59
2022-10-19T09:14:06.879Z,99918.22
2022-10-19T09:16:36.705Z,99924.06
2022-10-19T09:19:16.680Z,99918.00
2022-10-19T09:21:49.846Z,99920.75
2022-10-19T09:24:30.114Z,99919.38
2022-10-19T09:27:01.473Z,99928.31
2022-10-19T09:29:38.210Z,99927.47
2022-10-19T09:32:26.753Z,99921.25
2022-10-19T09:35:01.151Z,99923.34
2022-10-19T09:40:04.376Z,99913.16
2022-10-19T09:42:34.824Z,99915.44
2022-10-19T09:45:14.519Z,99911.47
2022-10-19T09:47:48.939Z,99902.13
2022-10-19T09:50:20.388Z,99900.38
2022-10-19T09:52:50.043Z,99896.34
2022-10-19T09:55:26.256Z,99898.06
2022-10-19T09:58:02.233Z,99888.28
2022-10-19T10:00:37.288Z,99898.50
2022-10-19T10:03:08.868Z,99894.25
2022-10-19T10:05:39.870Z,99898.13
2022-10-19T10:08:15.730Z,99886.41
2022-10-19T10:10:47.208Z,99891.44
2022-10-19T10:13:19.402Z,99896.38
2022-10-19T10:15:52.273Z,99887.84
2022-10-19T10:18:24.628Z,99898.63
2022-10-19T10:21:06.997Z,99895.09
2022-10-19T10:23:37.603Z,99888.03
2022-10-19T10:26:18.378Z,99880.28
2022-10-19T10:28:51.874Z,99893.44
2022-10-19T10:31:25.114Z,99881.63
2022-10-19T10:34:06.394Z,99881.97
2022-10-19T10:36:45.946Z,99884.59
2022-10-19T10:39:18.546Z,99882.03
2022-10-19T10:41:50.068Z,99875.06
2022-10-19T10:44:22.272Z,99872.06
2022-10-19T10:46:57.001Z,99869.53
2022-10-19T10:49:29.901Z,99875.16
2022-10-19T10:52:02.475Z,99875.66
2022-10-19T10:54:33.256Z,99871.69
2022-10-19T10:57:14.154Z,99855.81
2022-10-19T10:59:55.438Z,99861.75
2022-10-19T11:02:32.966Z,99856.50
2022-10-19T11:05:08.580Z,99858.38
2022-10-19T11:07:41.643Z,99851.84
2022-10-19T11:10:21.283Z,99843.75
2022-10-19T11:12:56.355Z,99843.81
2022-10-19T11:18:09.393Z,99840.91
2022-10-19T11:20:45.834Z,99838.91
2022-10-19T11:23:20.819Z,99847.13
2022-10-19T11:26:05.121Z,99828.22
2022-10-19T11:28:49.981Z,99840.97
2022-10-19T11:31:23.972Z,99827.66
2022-10-19T11:34:02.586Z,99831.97
2022-10-19T11:36:47.613Z,99825.41
2022-10-19T11:39:36.887Z,99827.09
2022-10-19T11:42:13.299Z,99815.00
2022-10-19T11:44:54.819Z,99818.44
2022-10-19T11:47:36.858Z,99810.56
2022-10-19T11:50:19.454Z,99812.66
2022-10-19T11:52:58.119Z,99805.72
2022-10-19T11:55:38.796Z,99807.19
2022-10-19T11:58:32.345Z,99805.72
2022-10-19T12:01:13.132Z,99809.16
2022-10-19T12:04:24.664Z,99799.25
2022-10-19T12:07:03.909Z,99803.19
2022-10-19T12:09:47.912Z,99802.19
2022-10-19T12:12:27.406Z,99801.47
2022-10-19T12:15:04.625Z,99803.78
2022-10-19T12:17:38.969Z,99798.78
2022-10-19T12:20:19.867Z,99792.59
2022-10-19T12:22:50.572Z,99794.75
2022-10-19T12:25:22.058Z,99807.56
2022-10-19T12:27:51.839Z,99798.81
2022-10-19T12:30:22.346Z,99799.94
2022-10-19T12:33:10.329Z,99794.66
2022-10-19T12:35:54.463Z,99795.53
2022-10-19T12:38:29.196Z,99791.50
2022-10-19T12:41:08.039Z,99787.69
2022-10-19T12:43:44.439Z,99797.81
2022-10-19T12:46:25.175Z,99791.34
2022-10-19T12:49:27.133Z,99787.41
2022-10-19T12:51:56.800Z,99796.78
2022-10-19T12:54:27.350Z,99790.56
2022-10-19T12:56:59.621Z,99785.53
2022-10-19T12:59:31.525Z,99785.94
2022-10-19T13:02:02.297Z,99787.91
2022-10-19T13:04:33.944Z,99785.44
2022-10-19T13:07:05.668Z,99776.09
2022-10-19T13:09:36.894Z,99785.31
2022-10-19T13:12:44.882Z,99782.88
2022-10-19T13:15:59.401Z,99784.53
2022-10-19T13:19:07.639Z,99751.34
2022-10-19T13:21:52.305Z,99782.19
2022-10-19T13:24:32.718Z,99781.38
2022-10-19T13:27:40.370Z,99785.56
2022-10-19T13:30:50.820Z,99787.88
2022-10-19T13:33:46.080Z,99789.97
2022-10-19T13:36:14.997Z,99788.75
2022-10-19T13:38:46.774Z,99775.97
2022-10-19T13:41:25.310Z,99769.56
2022-10-19T13:44:03.418Z,99776.34
2022-10-19T13:46:53.082Z,99775.94
2022-10-19T13:49:50.768Z,99783.34
2022-10-19T13:52:45.943Z,99777.56
2022-10-19T13:55:29.609Z,99779.69
2022-10-19T13:58:24.044Z,99768.47
2022-10-19T14:01:12.066Z,99773.22
2022-10-19T14:03:59.522Z,99767.25
2022-10-19T14:06:35.134Z,99766.34
2022-10-19T14:09:45.642Z,99758.13
2022-10-19T14:12:23.621Z,99761.16
2022-10-19T14:14:53.566Z,99750.88
2022-10-19T14:17:25.509Z,99757.22
2022-10-19T14:19:57.119Z,99755.94
2022-10-19T14:22:29.927Z,99762.69
2022-10-19T14:25:02.663Z,99750.09
2022-10-19T14:27:34.690Z,99753.84
2022-10-19T14:30:03.491Z,99747.06
2022-10-19T14:32:35.343Z,99747.53
2022-10-19T14:35:14.576Z,99745.31
2022-10-19T14:37:45.425Z,99753.88
2022-10-19T14:40:27.756Z,99748.59
2022-10-19T14:42:59.434Z,99744.47
2022-10-19T14:45:30.104Z,99745.41
2022-10-19T14:48:02.057Z,99747.09
2022-10-19T14:50:42.583Z,99751.78
2022-10-19T14:53:28.037Z,99745.56
2022-10-19T14:56:02.595Z,99745.47
2022-10-19T14:58:39.829Z,99747.00
2022-10-19T15:01:10.600Z,99742.31
2022-10-19T15:03:44.000Z,99747.19
2022-10-19T15:06:19.955Z,99746.50
2022-10-19T15:11:30.104Z,99743.28
2022-10-19T15:14:04.979Z,99737.41
2022-10-19T15:16:43.182Z,99734.69
2022-10-19T15:19:23.034Z,99730.84
2022-10-19T15:22:17.447Z,99739.38
2022-10-19T15:24:58.856Z,99733.22
2022-10-19T15:27:33.514Z,99737.47
2022-10-19T15:30:07.108Z,99737.41
2022-10-19T15:32:38.734Z,99737.59
2022-10-19T15:35:13.667Z,99737.00
2022-10-19T15:37:45.042Z,99745.03
2022-10-19T15:40:20.633Z,99748.09
2022-10-19T15:42:49.200Z,99748.75
2022-10-19T15:45:35.565Z,99745.81
2022-10-19T15:48:24.934Z,99747.56
2022-10-19T15:50:54.287Z,99753.91
2022-10-19T15:53:23.339Z,99750.75
2022-10-19T15:55:52.040Z,99750.94
2022-10-19T15:58:45.640Z,99753.91
2022-10-19T16:01:18.491Z,99759.97
2022-10-19T16:03:47.589Z,99767.78
2022-10-19T16:06:17.499Z,99762.63
2022-10-19T16:08:46.984Z,99761.38
2022-10-19T16:11:17.496Z,99760.41
2022-10-19T16:13:46.103Z,99773.78
2022-10-19T16:16:23.124Z,99784.00
2022-10-19T16:18:52.112Z,99788.41
2022-10-19T16:21:22.430Z,99795.13
2022-10-19T16:23:51.007Z,99786.88
2022-10-19T16:26:20.508Z,99788.84
2022-10-19T16:28:49.729Z,99802.06
2022-10-19T16:31:20.008Z,99804.88
2022-10-19T16:33:48.913Z,99813.75
2022-10-19T16:36:20.167Z,99816.59
2022-10-19T16:38:49.252Z,99819.13
2022-10-19T16:41:18.565Z,99817.97
2022-10-19T16:43:49.266Z,99837.41
2022-10-19T16:46:22.789Z,99831.53
2022-10-19T16:48:51.696Z,99828.63
2022-10-19T16:51:25.214Z,99836.75
2022-10-19T16:53:57.122Z,99833.13
2022-10-19T16:56:28.025Z,99841.19
2022-10-19T16:58:58.505Z,99835.16
2022-10-19T17:01:29.805Z,99842.28
2022-10-19T17:03:58.944Z,99840.22
2022-10-19T17:06:29.564Z,99839.59
2022-10-19T17:09:30.225Z,99840.41
2022-10-19T17:11:49.039Z,99847.25
2022-10-19T17:14:17.442Z,99853.38
2022-10-19T17:16:47.991Z,99838.88
2022-10-19T17:19:16.406Z,99862.94
2022-10-19T17:21:45.089Z,99863.72
2022-10-19T17:24:20.362Z,99867.50
2022-10-19T17:26:52.024Z,99866.91
2022-10-19T17:29:21.357Z,99873.97
2022-10-19T17:31:51.955Z,99869.50
2022-10-19T17:34:20.500Z,99872.97
2022-10-19T17:36:49.430Z,99870.47
2022-10-19T17:39:19.665Z,99873.44
2022-10-19T17:41:50.488Z,99878.75
2022-10-19T17:44:20.792Z,99880.72
2022-10-19T17:46:49.415Z,99894.50
2022-10-19T17:49:20.125Z,99888.28
2022-10-19T17:51:48.830Z,99891.91
2022-10-19T17:54:17.274Z,99895.47
2022-10-19T17:56:46.243Z,99891.19
2022-10-19T17:59:14.995Z,99890.44
2022-10-19T18:01:43.640Z,99895.81
2022-10-19T18:04:11.965Z,99894.22
2022-10-19T18:06:42.079Z,99898.53
2022-10-19T18:09:11.059Z,99901.34
2022-10-19T18:11:42.345Z,99897.91
2022-10-19T18:14:12.016Z,99897.03
2022-10-19T18:16:44.603Z,99896.88
2022-10-19T18:19:14.545Z,99899.00
2022-10-19T18:21:46.619Z,99904.56
2022-10-19T18:24:19.558Z,99901.91
2022-10-19T18:26:49.174Z,99907.34
2022-10-19T18:29:20.477Z,99909.94
2022-10-19T18:31:52.254Z,99911.44
2022-10-19T18:34:23.055Z,99903.28
2022-10-19T18:36:54.126Z,99913.25
2022-10-19T18:39:23.647Z,99912.25
2022-10-19T18:41:54.570Z,99918.31
2022-10-19T18:44:27.129Z,99920.22
2022-10-19T18:46:58.327Z,99927.09
2022-10-19T18:49:27.064Z,99926.44
2022-10-19T18:51:57.100Z,99931.94
2022-10-19T18:54:26.399Z,99931.50
2022-10-19T18:56:55.834Z,99925.38
2022-10-19T18:59:24.656Z,99938.00
2022-10-19T19:01:53.650Z,99932.84
2022-10-19T19:04:22.121Z,99936.38
2022-10-19T19:06:50.869Z,99935.97
2022-10-19T19:09:21.248Z,99945.63
2022-10-19T19:11:51.486Z,99944.78
2022-10-19T19:14:21.941Z,99950.19
2022-10-19T19:16:50.684Z,99963.44
2022-10-19T19:19:20.861Z,99946.81
2022-10-19T19:21:50.280Z,99959.03
2022-10-19T19:24:22.950Z,99961.72
2022-10-19T19:26:53.812Z,99972.50
2022-10-19T19:29:23.361Z,99973.38
2022-10-19T19:31:53.479Z,99970.91
2022-10-19T19:34:22.438Z,99978.78
2022-10-19T19:36:51.129Z,99982.41
2022-10-19T19:39:22.220Z,99980.63
2022-10-19T19:41:51.420Z,99985.22
2022-10-19T19:44:20.208Z,99984.34
2022-10-19T19:46:49.569Z,99986.97
2022-10-19T19:49:18.452Z,99981.59
2022-10-19T19:51:47.156Z,99985.00
2022-10-19T19:54:15.549Z,99979.00
2022-10-19T19:56:45.563Z,99991.06
2022-10-19T19:59:14.336Z,99997.25
2022-10-19T20:01:43.141Z,99994.75
2022-10-19T20:04:12.451Z,99994.22
2022-10-19T20:06:44.486Z,99999.69
2022-10-19T20:09:13.150Z,99994.44
2022-10-19T20:11:42.898Z,99998.47
2022-10-19T20:14:13.484Z,100013.47
2022-10-19T20:16:42.429Z,100004.53
2022-10-19T20:19:12.905Z,100016.78
2022-10-19T20:21:42.455Z,100004.44
2022-10-19T20:24:11.397Z,100008.44
2022-10-19T20:26:40.309Z,100011.09
2022-10-19T20:29:08.775Z,100011.94
2022-10-19T20:31:40.596Z,100011.66
2022-10-19T20:34:11.016Z,100013.16
2022-10-19T20:36:39.872Z,100019.13
2022-10-19T20:39:08.486Z,100013.88
2022-10-19T20:41:37.308Z,100010.22
2022-10-19T20:44:05.911Z,100016.94
2022-10-19T20:46:37.000Z,100013.47
2022-10-19T20:49:07.497Z,100004.84
2022-10-19T20:51:38.067Z,100008.75
2022-10-19T20:54:09.500Z,100012.78
2022-10-19T20:56:39.792Z,100011.66
2022-10-19T20:59:09.972Z,100021.06
2022-10-19T21:01:41.086Z,100016.97
2022-10-19T21:04:13.981Z,100026.09
2022-10-19T21:06:44.484Z,100018.91
2022-10-19T21:09:13.890Z,100026.13
2022-10-19T21:11:43.834Z,100037.03
2022-10-19T21:14:14.153Z,100040.41
2022-10-19T21:16:43.233Z,100030.34
2022-10-19T21:19:14.904Z,100029.09
2022-10-19T21:21:45.799Z,100035.25
2022-10-19T21:24:16.438Z,100036.78
2022-10-19T21:26:45.689Z,100031.31
2022-10-19T21:29:16.036Z,100029.72
2022-10-19T21:31:48.890Z,100023.22
2022-10-19T21:34:21.803Z,100025.41
2022-10-19T21:36:50.780Z,100022.16
2022-10-19T21:39:19.767Z,100025.53
2022-10-19T21:41:49.189Z,100031.66
2022-10-19T21:44:18.647Z,100022.09
2022-10-19T21:46:49.124Z,100021.09
2022-10-19T21:49:19.041Z,100020.59
2022-10-19T21:51:50.154Z,100015.22
2022-10-19T21:54:20.445Z,100021.38
2022-10-19T21:56:49.464Z,100030.78
2022-10-19T21:59:18.535Z,100026.44
2022-10-19T22:01:47.139Z,100020.09
2022-10-19T22:04:19.459Z,100036.09
2022-10-19T22:06:48.528Z,100029.03
2022-10-19T22:09:19.281Z,100030.88
2022-10-19T22:11:48.889Z,100028.19
2022-10-19T22:14:18.558Z,100037.00
2022-10-19T22:16:47.355Z,100033.06
2022-10-19T22:19:16.191Z,100034.34
2022-10-19T22:21:46.341Z,100033.81
2022-10-19T22:24:16.632Z,100037.03
2022-10-19T22:26:47.390Z,100042.97
2022-10-19T22:29:15.933Z,100043.13
2022-10-19T22:31:45.031Z,100042.16
2022-10-19T22:34:16.052Z,100041.81
2022-10-19T22:36:46.453Z,100038.06
2022-10-19T22:39:15.459Z,100034.59
2022-10-19T22:41:44.230Z,100033.75
2022-10-19T22:44:12.769Z,100027.63
2022-10-19T22:46:41.900Z,100036.25
2022-10-19T22:49:10.898Z,100024.84
2022-10-19T22:51:39.684Z,100030.44
2022-10-19T22:54:09.816Z,100035.06
2022-10-19T22:56:39.142Z,100050.16
2022-10-19T22:59:08.527Z,100037.75
2022-10-19T23:01:37.801Z,100047.38
2022-10-19T23:04:06.838Z,100048.13
2022-10-19T23:06:36.119Z,100048.28
2022-10-19T23:09:05.763Z,100060.47
2022-10-19T23:11:36.620Z,100056.69
2022-10-19T23:14:05.226Z,100068.59
2022-10-19T23:16:34.134Z,100063.28
2022-10-19T23:19:03.148Z,100069.50
2022-10-19T23:21:32.554Z,100071.81
2022-10-19T23:24:01.376Z,100058.41
2022-10-19T23:26:30.604Z,100060.84
2022-10-19T23:29:00.944Z,100056.38
2022-10-19T23:31:31.159Z,100061.63
2022-10-19T23:33:59.811Z,100068.47
2022-10-19T23:36:30.215Z,100063.09
2022-10-19T23:38:59.129Z,100063.91
2022-10-19T23:41:28.024Z,100064.91
2022-10-19T23:43:56.748Z,100066.84
2022-10-19T23:46:27.056Z,100072.94
2022-10-19T23:48:55.716Z,100069.69
2022-10-19T23:51:25.016Z,100069.84
2022-10-19T23:53:53.919Z,100070.66
2022-10-19T23:56:24.804Z,100070.78
2022-10-19T23:58:54.433Z,100073.72
